createdAt,value
2018-06-01T00:01:42.947Z,72.62
2018-06-01T00:04:11.882Z,71.23
2018-06-01T00:06:40.861Z,70.06
2018-06-01T00:09:09.928Z,70.30
2018-06-01T00:11:38.840Z,71.87
2018-06-01T00:14:07.819Z,72.83
2018-06-01T00:16:37.002Z,72.47
2018-06-01T00:19:05.841Z,71.35
2018-06-01T00:21:35.032Z,71.70
2018-06-01T00:24:04.172Z,71.89
2018-06-01T00:26:33.257Z,71.92
2018-06-01T00:29:02.183Z,72.35
2018-06-01T00:31:31.090Z,74.48
2018-06-01T00:34:00.100Z,74.61
2018-06-01T00:36:29.194Z,74.88
2018-06-01T00:38:58.227Z,74.95
2018-06-01T00:41:27.117Z,72.70
2018-06-01T00:43:56.310Z,70.88
2018-06-01T00:46:25.368Z,70.07
2018-06-01T00:48:54.328Z,69.83
2018-06-01T00:51:23.396Z,70.03
2018-06-01T00:53:52.278Z,70.39
2018-06-01T00:56:21.164Z,71.17
2018-06-01T00:58:50.102Z,71.93
2018-06-01T01:01:19.064Z,72.95
2018-06-01T01:03:48.020Z,73.97
2018-06-01T01:06:16.885Z,74.76
2018-06-01T01:08:46.036Z,74.00
2018-06-01T01:11:14.983Z,74.12
2018-06-01T01:13:44.090Z,74.67
2018-06-01T01:16:13.006Z,75.75
2018-06-01T01:18:41.925Z,76.37
2018-06-01T01:21:11.016Z,76.93
2018-06-01T01:23:40.204Z,78.22
2018-06-01T01:26:09.433Z,78.37
2018-06-01T01:28:38.297Z,79.40
2018-06-01T01:31:07.418Z,81.46
2018-06-01T01:33:37.824Z,81.91
2018-06-01T01:36:06.808Z,81.41
2018-06-01T01:38:35.660Z,76.86
2018-06-01T01:41:04.616Z,74.88
2018-06-01T01:43:33.508Z,73.93
2018-06-01T01:46:02.377Z,72.98
2018-06-01T01:48:31.081Z,72.34
2018-06-01T01:50:59.910Z,72.00
2018-06-01T01:53:29.020Z,72.18
2018-06-01T01:55:58.097Z,72.20
2018-06-01T01:58:27.034Z,72.81
2018-06-01T02:00:55.859Z,73.01
2018-06-01T02:03:24.861Z,74.07
2018-06-01T02:05:53.761Z,74.59
2018-06-01T02:08:23.006Z,72.52
2018-06-01T02:10:52.161Z,71.99
2018-06-01T02:13:21.287Z,71.03
2018-06-01T02:15:50.444Z,70.94
2018-06-01T02:18:19.444Z,71.20
2018-06-01T02:20:48.601Z,71.13
2018-06-01T02:23:17.653Z,69.06
2018-06-01T02:25:46.658Z,69.06
2018-06-01T02:28:15.617Z,69.67
2018-06-01T02:30:44.714Z,69.83
2018-06-01T02:33:13.564Z,70.32
2018-06-01T02:35:42.650Z,70.78
2018-06-01T02:38:11.645Z,71.39
2018-06-01T02:40:40.542Z,71.42
2018-06-01T02:43:09.556Z,70.81
2018-06-01T02:45:38.726Z,70.06
2018-06-01T02:48:08.437Z,68.98
2018-06-01T02:50:37.554Z,70.10
2018-06-01T02:53:06.443Z,70.20
2018-06-01T02:55:35.339Z,69.61
2018-06-01T02:58:04.448Z,69.78
2018-06-01T03:00:33.568Z,69.14
2018-06-01T03:03:02.525Z,68.63
2018-06-01T03:05:31.644Z,68.46
2018-06-01T03:08:00.650Z,67.86
2018-06-01T03:10:29.527Z,68.53
2018-06-01T03:12:58.404Z,68.52
2018-06-01T03:15:27.245Z,68.18
2018-06-01T03:17:55.984Z,68.97
2018-06-01T03:20:25.001Z,68.41
2018-06-01T03:22:54.200Z,68.53
2018-06-01T03:25:23.245Z,67.25
2018-06-01T03:27:52.206Z,68.04
2018-06-01T03:30:21.433Z,67.96
2018-06-01T03:32:50.272Z,66.19
2018-06-01T03:35:19.165Z,66.64
2018-06-01T03:37:48.178Z,66.24
2018-06-01T03:40:17.050Z,65.34
2018-06-01T03:42:46.155Z,62.04
2018-06-01T03:45:15.223Z,61.90
2018-06-01T03:47:44.323Z,61.21
2018-06-01T03:50:13.484Z,59.81
2018-06-01T03:52:42.629Z,58.27
2018-06-01T03:55:11.512Z,58.60
2018-06-01T03:57:40.569Z,57.21
2018-06-01T04:00:10.309Z,56.81
2018-06-01T04:02:39.449Z,57.33
2018-06-01T04:05:08.528Z,58.50
2018-06-01T04:07:37.612Z,57.09
2018-06-01T04:10:06.537Z,60.53
2018-06-01T04:12:35.456Z,59.99
2018-06-01T04:15:04.452Z,58.88
2018-06-01T04:17:33.469Z,59.18
2018-06-01T04:20:02.543Z,60.10
2018-06-01T04:22:31.625Z,58.55
2018-06-01T04:25:00.756Z,59.69
2018-06-01T04:27:29.634Z,60.83
2018-06-01T04:29:58.613Z,58.64
2018-06-01T04:32:27.486Z,58.63
2018-06-01T04:34:56.484Z,57.99
2018-06-01T04:37:25.639Z,58.80
2018-06-01T04:39:54.488Z,57.74
2018-06-01T04:42:23.420Z,57.80
2018-06-01T04:44:52.322Z,57.02
2018-06-01T04:47:21.396Z,56.51
2018-06-01T04:49:50.445Z,56.72
2018-06-01T04:52:19.505Z,54.46
2018-06-01T04:54:48.477Z,55.08
2018-06-01T04:57:17.553Z,54.88
2018-06-01T04:59:46.396Z,52.88
2018-06-01T05:02:15.272Z,52.79
2018-06-01T05:04:44.137Z,54.72
2018-06-01T05:07:13.252Z,55.45
2018-06-01T05:09:42.166Z,57.22
2018-06-01T05:12:11.180Z,60.41
2018-06-01T05:14:40.435Z,60.11
2018-06-01T05:17:09.390Z,60.43
2018-06-01T05:19:38.426Z,60.81
2018-06-01T05:22:07.609Z,62.00
2018-06-01T05:24:36.717Z,63.75
2018-06-01T05:27:06.135Z,63.80
2018-06-01T05:29:35.291Z,61.91
2018-06-01T05:32:04.256Z,63.68
2018-06-01T05:34:33.518Z,63.11
2018-06-01T05:37:02.613Z,61.82
2018-06-01T05:39:31.706Z,61.28
2018-06-01T05:42:00.802Z,61.03
2018-06-01T05:44:29.752Z,58.46
2018-06-01T05:46:58.887Z,58.90
2018-06-01T05:49:27.941Z,57.77
2018-06-01T05:51:57.067Z,57.13
2018-06-01T05:54:26.093Z,56.44
2018-06-01T05:56:55.283Z,55.81
2018-06-01T05:59:24.325Z,54.27
2018-06-01T06:01:53.584Z,52.97
2018-06-01T06:04:22.676Z,54.38
2018-06-01T06:06:51.722Z,53.97
2018-06-01T06:09:20.880Z,53.07
2018-06-01T06:11:50.122Z,52.04
2018-06-01T06:14:19.137Z,50.31
2018-06-01T06:16:48.356Z,49.49
2018-06-01T06:19:17.509Z,49.13
2018-06-01T06:21:46.701Z,50.25
2018-06-01T06:24:15.980Z,48.89
2018-06-01T06:26:45.111Z,48.35
2018-06-01T06:29:14.185Z,48.17
2018-06-01T06:31:43.350Z,47.50
2018-06-01T06:34:12.423Z,46.72
2018-06-01T06:36:41.580Z,46.87
2018-06-01T06:39:11.527Z,45.85
2018-06-01T06:41:40.616Z,47.22
2018-06-01T06:44:09.371Z,45.44
2018-06-01T06:46:38.468Z,44.87
2018-06-01T06:49:07.707Z,45.01
2018-06-01T06:51:36.610Z,45.77
2018-06-01T06:54:05.701Z,45.15
2018-06-01T06:56:34.788Z,45.59
2018-06-01T06:59:03.728Z,44.81
2018-06-01T07:01:32.816Z,43.54
2018-06-01T07:04:01.670Z,42.89
2018-06-01T07:06:30.861Z,42.85
2018-06-01T07:09:00.273Z,42.73
2018-06-01T07:11:29.608Z,42.32
2018-06-01T07:13:59.263Z,43.94
2018-06-01T07:16:28.384Z,42.77
2018-06-01T07:18:57.473Z,41.47
2018-06-01T07:21:26.610Z,40.28
2018-06-01T07:23:55.665Z,40.32
2018-06-01T07:26:24.896Z,39.85
2018-06-01T07:28:53.936Z,40.64
2018-06-01T07:31:23.104Z,39.56
2018-06-01T07:33:52.199Z,41.99
2018-06-01T07:36:21.485Z,40.30
2018-06-01T07:38:50.698Z,39.50
2018-06-01T07:41:19.929Z,40.66
2018-06-01T07:43:49.136Z,41.20
2018-06-01T07:46:18.221Z,42.04
2018-06-01T07:48:47.217Z,41.43
2018-06-01T07:51:16.247Z,41.35
2018-06-01T07:53:45.294Z,41.97
2018-06-01T07:56:14.397Z,40.86
2018-06-01T07:58:43.332Z,40.00
2018-06-01T08:01:12.438Z,37.50
2018-06-01T08:03:41.688Z,37.39
2018-06-01T08:06:10.765Z,37.63
2018-06-01T08:08:39.908Z,36.32
2018-06-01T08:11:09.161Z,35.53
2018-06-01T08:13:38.367Z,36.28
2018-06-01T08:16:07.553Z,35.71
2018-06-01T08:18:36.654Z,35.58
2018-06-01T08:21:05.757Z,35.94
2018-06-01T08:23:34.949Z,34.81
2018-06-01T08:26:03.913Z,34.72
2018-06-01T08:28:32.841Z,33.54
2018-06-01T08:31:01.828Z,35.42
2018-06-01T08:33:30.781Z,35.43
2018-06-01T08:35:59.916Z,32.46
2018-06-01T08:38:29.280Z,34.99
2018-06-01T08:40:58.302Z,33.87
2018-06-01T08:43:27.219Z,32.86
2018-06-01T08:45:56.266Z,33.95
2018-06-01T08:48:25.490Z,35.21
2018-06-01T08:50:54.524Z,33.47
2018-06-01T08:53:23.369Z,35.29
2018-06-01T08:55:52.565Z,34.30
2018-06-01T08:58:21.677Z,35.08
2018-06-01T09:00:50.700Z,34.74
2018-06-01T09:03:19.900Z,36.34
2018-06-01T09:05:49.642Z,33.39
2018-06-01T09:08:18.767Z,33.94
2018-06-01T09:10:47.822Z,34.41
2018-06-01T09:13:16.812Z,33.64
2018-06-01T09:15:45.851Z,33.67
2018-06-01T09:18:15.052Z,30.78
2018-06-01T09:20:44.120Z,32.35
2018-06-01T09:23:13.093Z,32.76
2018-06-01T09:25:42.060Z,31.48
2018-06-01T09:28:11.155Z,33.53
2018-06-01T09:30:40.395Z,33.16
2018-06-01T09:33:09.359Z,31.11
2018-06-01T09:35:38.684Z,30.10
2018-06-01T09:38:08.129Z,30.92
2018-06-01T09:40:37.154Z,31.79
2018-06-01T09:43:06.193Z,33.89
2018-06-01T09:45:35.404Z,33.19
2018-06-01T09:48:04.682Z,33.10
2018-06-01T09:50:33.581Z,30.76
2018-06-01T09:53:02.652Z,31.47
2018-06-01T09:55:32.143Z,31.87
2018-06-01T09:58:01.482Z,34.01
2018-06-01T10:00:36.472Z,34.36
2018-06-01T10:03:05.960Z,33.87
2018-06-01T10:05:35.120Z,34.73
2018-06-01T10:08:05.140Z,33.35
2018-06-01T10:10:37.146Z,30.89
2018-06-01T10:13:06.396Z,29.25
2018-06-01T10:15:35.497Z,29.38
2018-06-01T10:18:04.654Z,29.29
2018-06-01T10:20:35.646Z,29.31
2018-06-01T10:23:04.503Z,28.96
2018-06-01T10:25:33.593Z,29.91
2018-06-01T10:28:02.610Z,29.87
2018-06-01T10:30:31.536Z,30.16
2018-06-01T10:33:00.557Z,29.75
2018-06-01T10:35:29.496Z,30.27
2018-06-01T10:37:58.730Z,30.47
2018-06-01T10:40:27.823Z,30.26
2018-06-01T10:42:56.866Z,31.08
2018-06-01T10:45:25.864Z,31.83
2018-06-01T10:47:54.843Z,31.53
2018-06-01T10:50:23.705Z,30.96
2018-06-01T10:52:52.609Z,31.45
2018-06-01T10:55:21.765Z,31.57
2018-06-01T10:57:50.888Z,32.36
2018-06-01T11:00:19.978Z,34.15
2018-06-01T11:02:49.219Z,33.56
2018-06-01T11:05:18.421Z,32.59
2018-06-01T11:07:47.438Z,32.45
2018-06-01T11:10:16.561Z,33.32
2018-06-01T11:12:45.640Z,32.05
2018-06-01T11:15:14.679Z,32.46
2018-06-01T11:17:44.399Z,32.00
2018-06-01T11:20:13.517Z,31.86
2018-06-01T11:22:42.797Z,32.54
2018-06-01T11:25:11.687Z,33.54
2018-06-01T11:27:40.745Z,32.68
2018-06-01T11:30:09.916Z,32.19
2018-06-01T11:32:38.924Z,31.97
2018-06-01T11:35:08.224Z,32.15
2018-06-01T11:37:37.315Z,33.01
2018-06-01T11:40:06.557Z,32.71
2018-06-01T11:42:35.755Z,33.35
2018-06-01T11:45:05.088Z,33.83
2018-06-01T11:47:34.416Z,33.70
2018-06-01T11:50:03.458Z,33.29
2018-06-01T11:52:32.590Z,34.37
2018-06-01T11:55:01.629Z,34.24
2018-06-01T11:57:30.698Z,34.75
2018-06-01T11:59:59.877Z,34.58
2018-06-01T12:02:29.164Z,33.46
2018-06-01T12:04:58.333Z,34.60
2018-06-01T12:07:27.485Z,35.51
2018-06-01T12:09:56.667Z,35.71
2018-06-01T12:12:25.764Z,34.70
2018-06-01T12:14:54.966Z,34.45
2018-06-01T12:20:06.066Z,36.12
2018-06-01T12:22:35.133Z,36.67
2018-06-01T12:25:04.712Z,35.82
2018-06-01T12:27:33.750Z,36.52
2018-06-01T12:30:02.924Z,37.39
2018-06-01T12:32:31.932Z,36.36
2018-06-01T12:35:01.038Z,37.33
2018-06-01T12:37:30.192Z,37.83
2018-06-01T12:39:59.160Z,38.79
2018-06-01T12:42:28.244Z,39.44
2018-06-01T12:44:57.163Z,40.80
2018-06-01T12:47:26.004Z,41.69
2018-06-01T12:49:55.075Z,38.82
2018-06-01T12:52:24.172Z,40.27
2018-06-01T12:54:53.230Z,42.08
2018-06-01T12:57:22.166Z,44.74
2018-06-01T12:59:51.432Z,46.84
2018-06-01T13:02:20.944Z,47.85
2018-06-01T13:04:50.334Z,49.86
2018-06-01T13:07:19.475Z,49.26
2018-06-01T13:09:48.677Z,49.66
2018-06-01T13:12:17.916Z,52.03
2018-06-01T13:14:46.962Z,51.57
2018-06-01T13:17:15.993Z,52.00
2018-06-01T13:19:45.092Z,49.72
2018-06-01T13:22:14.204Z,51.16
2018-06-01T13:24:43.342Z,47.96
2018-06-01T13:27:12.525Z,51.56
2018-06-01T13:29:41.516Z,50.36
2018-06-01T13:32:10.364Z,49.38
2018-06-01T13:34:39.312Z,50.38
2018-06-01T13:37:08.328Z,51.90
2018-06-01T13:39:37.371Z,55.43
2018-06-01T13:42:06.144Z,57.88
2018-06-01T13:44:35.280Z,59.38
2018-06-01T13:47:04.424Z,60.87
2018-06-01T13:49:33.368Z,63.09
2018-06-01T13:52:02.742Z,61.99
2018-06-01T13:54:32.790Z,65.92
2018-06-01T13:57:01.735Z,63.98
2018-06-01T13:59:30.865Z,65.27
2018-06-01T14:01:59.912Z,64.90
2018-06-01T14:04:28.763Z,61.48
2018-06-01T14:06:57.661Z,61.37
2018-06-01T14:09:26.759Z,63.47
2018-06-01T14:11:55.904Z,61.03
2018-06-01T14:14:25.108Z,63.06
2018-06-01T14:16:54.203Z,62.71
2018-06-01T14:19:23.260Z,61.89
2018-06-01T14:21:52.460Z,64.91
2018-06-01T14:24:22.355Z,62.19
2018-06-01T14:26:51.473Z,63.38
2018-06-01T14:29:20.619Z,64.37
2018-06-01T14:31:49.839Z,64.99
2018-06-01T14:34:18.716Z,64.10
2018-06-01T14:36:47.597Z,66.09
2018-06-01T14:39:16.775Z,67.82
2018-06-01T14:41:45.827Z,69.17
2018-06-01T14:44:14.988Z,70.14
2018-06-01T14:46:43.980Z,69.61
2018-06-01T14:49:13.184Z,70.53
2018-06-01T14:51:42.253Z,72.66
2018-06-01T14:54:11.383Z,70.98
2018-06-01T14:56:40.616Z,70.59
2018-06-01T14:59:09.563Z,72.17
2018-06-01T15:01:38.644Z,71.38
2018-06-01T15:04:07.818Z,70.58
2018-06-01T15:06:36.705Z,71.75
2018-06-01T15:09:06.050Z,71.57
2018-06-01T15:11:35.255Z,72.35
2018-06-01T15:14:04.433Z,72.95
2018-06-01T15:16:33.505Z,71.95
2018-06-01T15:19:02.373Z,73.56
2018-06-01T15:21:31.298Z,73.17
2018-06-01T15:24:00.266Z,73.47
2018-06-01T15:26:29.109Z,72.34
2018-06-01T15:28:58.005Z,71.64
2018-06-01T15:31:26.904Z,72.96
2018-06-01T15:33:55.805Z,71.93
2018-06-01T15:36:25.092Z,71.76
2018-06-01T15:38:54.233Z,74.81
2018-06-01T15:41:23.234Z,72.53
2018-06-01T15:43:52.456Z,72.74
2018-06-01T15:46:21.552Z,71.95
2018-06-01T15:48:50.540Z,72.29
2018-06-01T15:51:19.464Z,71.69
2018-06-01T15:53:48.385Z,71.55
2018-06-01T15:56:17.848Z,71.88
2018-06-01T15:58:46.876Z,70.95
2018-06-01T16:01:15.941Z,68.94
2018-06-01T16:03:45.106Z,68.82
2018-06-01T16:06:14.113Z,67.88
2018-06-01T16:08:43.073Z,67.52
2018-06-01T16:11:12.024Z,65.76
2018-06-01T16:13:40.874Z,60.45
2018-06-01T16:16:09.968Z,56.82
2018-06-01T16:18:39.110Z,57.65
2018-06-01T16:21:08.076Z,57.55
2018-06-01T16:23:36.981Z,56.84
2018-06-01T16:26:06.000Z,57.62
2018-06-01T16:28:34.950Z,53.22
2018-06-01T16:31:03.776Z,51.17
2018-06-01T16:33:33.048Z,51.71
2018-06-01T16:36:02.257Z,54.58
2018-06-01T16:38:31.511Z,53.20
2018-06-01T16:41:00.536Z,51.17
2018-06-01T16:43:29.643Z,47.74
2018-06-01T16:45:58.804Z,48.65
2018-06-01T16:48:27.916Z,52.02
2018-06-01T16:50:57.208Z,49.83
2018-06-01T16:53:26.036Z,50.93
2018-06-01T16:55:55.092Z,52.78
2018-06-01T16:58:23.932Z,53.09
2018-06-01T17:00:52.876Z,52.59
2018-06-01T17:03:21.758Z,53.00
2018-06-01T17:05:50.595Z,54.49
2018-06-01T17:08:19.512Z,55.59
2018-06-01T17:10:48.569Z,54.17
2018-06-01T17:13:17.515Z,56.52
2018-06-01T17:15:46.601Z,57.62
2018-06-01T17:18:15.560Z,59.76
2018-06-01T17:20:44.452Z,61.23
2018-06-01T17:23:13.661Z,61.82
2018-06-01T17:25:42.724Z,63.82
2018-06-01T17:28:11.834Z,65.11
2018-06-01T17:30:40.745Z,65.92
2018-06-01T17:33:09.632Z,67.05
2018-06-01T17:35:38.598Z,66.65
2018-06-01T17:38:07.580Z,67.04
2018-06-01T17:40:36.701Z,69.88
2018-06-01T17:43:05.769Z,68.96
2018-06-01T17:45:35.104Z,69.06
2018-06-01T17:48:04.497Z,70.21
2018-06-01T17:50:33.693Z,70.55
2018-06-01T17:53:03.094Z,71.04
2018-06-01T17:55:32.401Z,70.94
2018-06-01T17:58:01.348Z,71.19
2018-06-01T18:00:30.634Z,71.12
2018-06-01T18:02:59.693Z,71.14
2018-06-01T18:05:29.761Z,71.12
2018-06-01T18:07:58.849Z,69.11
2018-06-01T18:10:28.026Z,68.89
2018-06-01T18:12:56.918Z,69.08
2018-06-01T18:15:25.916Z,69.23
2018-06-01T18:17:55.708Z,69.33
2018-06-01T18:20:24.627Z,69.57
2018-06-01T18:22:53.732Z,69.88
2018-06-01T18:25:22.872Z,70.28
2018-06-01T18:27:51.977Z,70.36
2018-06-01T18:30:21.024Z,69.95
2018-06-01T18:32:50.045Z,69.71
2018-06-01T18:35:19.170Z,68.74
2018-06-01T18:37:48.212Z,69.58
2018-06-01T18:40:17.408Z,68.83
2018-06-01T18:42:46.550Z,69.25
2018-06-01T18:45:15.716Z,68.94
2018-06-01T18:47:44.961Z,70.47
2018-06-01T18:50:13.914Z,68.12
2018-06-01T18:52:42.805Z,67.61
2018-06-01T18:55:12.012Z,67.41
2018-06-01T18:57:41.745Z,66.77
2018-06-01T19:00:10.955Z,67.50
2018-06-01T19:02:39.956Z,67.63
2018-06-01T19:05:08.926Z,69.39
2018-06-01T19:07:38.064Z,67.79
2018-06-01T19:10:07.018Z,67.67
2018-06-01T19:12:36.064Z,68.71
2018-06-01T19:15:05.340Z,69.66
2018-06-01T19:17:34.459Z,70.30
2018-06-01T19:20:04.278Z,68.04
2018-06-01T19:22:33.437Z,68.68
2018-06-01T19:25:02.599Z,69.47
2018-06-01T19:27:31.677Z,69.80
2018-06-01T19:30:00.744Z,70.70
2018-06-01T19:32:29.668Z,70.14
2018-06-01T19:34:58.517Z,70.73
2018-06-01T19:37:27.441Z,71.43
2018-06-01T19:39:56.313Z,71.97
2018-06-01T19:42:25.173Z,72.17
2018-06-01T19:44:54.320Z,72.59
2018-06-01T19:47:23.209Z,73.23
2018-06-01T19:49:52.220Z,73.92
2018-06-01T19:52:21.540Z,74.48
2018-06-01T19:54:50.485Z,74.34
2018-06-01T19:57:19.400Z,73.62
2018-06-01T19:59:48.761Z,73.46
2018-06-01T20:02:17.593Z,72.93
2018-06-01T20:04:46.739Z,73.13
2018-06-01T20:07:15.941Z,73.08
2018-06-01T20:09:45.020Z,74.08
2018-06-01T20:12:14.081Z,73.79
2018-06-01T20:14:43.334Z,74.53
2018-06-01T20:17:12.182Z,75.13
2018-06-01T20:19:41.178Z,74.65
2018-06-01T20:22:10.529Z,75.11
2018-06-01T20:24:39.516Z,75.20
2018-06-01T20:27:08.398Z,74.08
2018-06-01T20:29:37.417Z,74.24
2018-06-01T20:32:06.453Z,74.05
2018-06-01T20:34:35.310Z,73.10
2018-06-01T20:37:04.688Z,71.80
2018-06-01T20:39:34.120Z,72.46
2018-06-01T20:42:03.141Z,74.01
2018-06-01T20:44:32.065Z,74.43
2018-06-01T20:47:01.316Z,74.83
2018-06-01T20:49:30.536Z,75.18
2018-06-01T20:51:59.486Z,75.91
2018-06-01T20:54:28.676Z,75.65
2018-06-01T20:56:57.726Z,75.64
2018-06-01T20:59:26.856Z,75.96
2018-06-01T21:01:56.070Z,76.23
2018-06-01T21:04:25.149Z,75.61
2018-06-01T21:06:54.023Z,74.54
2018-06-01T21:09:23.153Z,75.17
2018-06-01T21:11:52.270Z,73.22
2018-06-01T21:14:21.292Z,73.85
2018-06-01T21:16:50.084Z,73.12
2018-06-01T21:19:19.144Z,73.64
2018-06-01T21:21:48.285Z,73.81
2018-06-01T21:24:17.168Z,73.61
2018-06-01T21:26:46.096Z,73.39
2018-06-01T21:29:15.153Z,72.61
2018-06-01T21:31:44.152Z,73.03
2018-06-01T21:34:13.348Z,72.99
2018-06-01T21:36:42.404Z,72.98
2018-06-01T21:39:11.364Z,72.98
2018-06-01T21:41:40.495Z,73.38
2018-06-01T21:44:09.458Z,75.37
2018-06-01T21:46:38.360Z,75.89
2018-06-01T21:49:07.362Z,77.54
2018-06-01T21:51:36.425Z,79.20
2018-06-01T21:54:05.400Z,79.42
2018-06-01T21:56:34.636Z,79.94
2018-06-01T21:59:03.401Z,80.87
2018-06-01T22:01:32.516Z,81.69
2018-06-01T22:04:01.541Z,82.05
2018-06-01T22:06:30.625Z,82.37
2018-06-01T22:08:59.505Z,82.97
2018-06-01T22:11:28.480Z,83.00
2018-06-01T22:13:57.808Z,82.04
2018-06-01T22:16:26.691Z,83.34
2018-06-01T22:18:55.766Z,81.72
2018-06-01T22:21:24.903Z,82.36
2018-06-01T22:23:53.597Z,83.10
2018-06-01T22:26:22.650Z,82.50
2018-06-01T22:28:51.649Z,82.53
2018-06-01T22:31:20.539Z,81.20
2018-06-01T22:33:49.523Z,82.67
2018-06-01T22:36:18.558Z,82.86
2018-06-01T22:38:48.012Z,82.88
2018-06-01T22:41:17.037Z,80.79
2018-06-01T22:43:46.028Z,80.75
2018-06-01T22:46:14.981Z,79.40
2018-06-01T22:48:43.992Z,78.97
2018-06-01T22:51:12.935Z,76.50
2018-06-01T22:53:41.989Z,77.12
2018-06-01T22:56:11.080Z,74.56
2018-06-01T22:58:40.167Z,75.24
2018-06-01T23:01:09.287Z,74.22
2018-06-01T23:03:38.407Z,74.78
2018-06-01T23:06:07.521Z,74.81
2018-06-01T23:08:36.565Z,74.75
2018-06-01T23:11:05.820Z,74.86
2018-06-01T23:13:34.884Z,74.53
2018-06-01T23:16:03.857Z,74.35
2018-06-01T23:18:32.906Z,73.11
2018-06-01T23:21:01.937Z,72.20
2018-06-01T23:23:30.996Z,73.39
2018-06-01T23:25:59.856Z,72.42
2018-06-01T23:28:28.713Z,72.52
2018-06-01T23:30:57.505Z,72.97
2018-06-01T23:33:26.581Z,73.16
2018-06-01T23:35:55.617Z,73.52
2018-06-01T23:38:24.617Z,71.59
2018-06-01T23:40:53.691Z,72.92
2018-06-01T23:43:23.563Z,73.02
2018-06-01T23:45:52.658Z,73.12
2018-06-01T23:48:21.471Z,74.26
2018-06-01T23:50:50.337Z,73.61
2018-06-01T23:53:19.331Z,74.96
2018-06-01T23:55:48.487Z,74.80
2018-06-01T23:58:17.312Z,72.20
